Gyor, Hungary
Current Conditions -  °F | °C
As of 7:45 PM on Monday 20 Oct 2014 (Local Time) from LHPR Reporting Station
Clear Clear  
Wind Chill: 63°   Ceiling: Unl
Heat Index: 63°   Visibility: 6mi
Dew Point: 59°   Wind: 6mph
Humidity: 88%   Direction: 190°S
Pressure: 30"   Gusts: NA
Location:  47.69°N, 17.64°E
Report Text: LHPR 201745Z 19005KT CAVOK 17/15 Q1016
Loading
Personal Weather Stations






























Interactive Weather Map
Tropical Storm Tracking
New forecast layout! Learn more

10-Day Weather Forecast

Advertisements
Track Severe Weather on mobile